createdAt,value
2023-03-19T00:04:11.562Z,19.08
2023-03-19T00:09:05.953Z,18.27
2023-03-19T00:13:58.566Z,18.23
2023-03-19T00:18:52.937Z,19.08
2023-03-19T00:23:45.801Z,17.65
2023-03-19T00:28:44.296Z,16.95
2023-03-19T00:33:37.441Z,18.40
2023-03-19T00:38:31.590Z,20.83
2023-03-19T00:43:24.806Z,19.27
2023-03-19T00:48:18.630Z,18.65
2023-03-19T00:53:12.382Z,18.60
2023-03-19T00:58:06.950Z,21.73
2023-03-19T01:03:01.491Z,18.88
2023-03-19T01:07:56.335Z,19.80
2023-03-19T01:12:49.565Z,18.75
2023-03-19T01:17:43.206Z,17.73
2023-03-19T01:22:38.962Z,19.52
2023-03-19T01:27:32.605Z,19.42
2023-03-19T01:32:27.478Z,20.20
2023-03-19T01:37:45.546Z,19.83
2023-03-19T01:42:58.456Z,19.20
2023-03-19T01:48:43.870Z,19.85
2023-03-19T01:58:41.942Z,18.40
2023-03-19T02:03:55.364Z,19.27
2023-03-19T02:08:54.153Z,17.13
2023-03-19T02:13:47.539Z,19.13
2023-03-19T02:18:40.117Z,16.88
2023-03-19T02:23:54.177Z,16.95
2023-03-19T02:29:00.544Z,18.70
2023-03-19T02:34:02.762Z,19.05
2023-03-19T02:38:56.433Z,18.60
2023-03-19T02:43:50.181Z,18.92
2023-03-19T02:48:44.023Z,19.58
2023-03-19T02:53:37.417Z,19.80
2023-03-19T02:58:30.687Z,21.13
2023-03-19T03:03:23.922Z,21.17
2023-03-19T03:08:17.182Z,19.98
2023-03-19T03:13:09.887Z,20.15
2023-03-19T03:18:03.954Z,19.40
2023-03-19T03:22:57.959Z,19.75
2023-03-19T03:27:52.148Z,21.17
2023-03-19T03:32:45.268Z,19.05
2023-03-19T03:37:38.646Z,19.40
2023-03-19T03:42:32.061Z,20.33
2023-03-19T03:47:25.228Z,18.23
2023-03-19T03:52:17.997Z,19.48
2023-03-19T03:57:11.085Z,20.95
2023-03-19T04:02:04.887Z,20.98
2023-03-19T04:06:58.465Z,21.15
2023-03-19T04:12:00.394Z,19.55
2023-03-19T04:16:53.644Z,22.88
2023-03-19T04:21:46.534Z,24.02
2023-03-19T04:26:40.535Z,22.33
2023-03-19T04:31:34.424Z,23.17
2023-03-19T04:36:32.058Z,23.20
2023-03-19T04:41:26.446Z,21.17
2023-03-19T04:46:39.882Z,20.10
2023-03-19T04:51:34.407Z,20.48
2023-03-19T04:56:29.541Z,19.77
2023-03-19T05:01:23.358Z,20.00
2023-03-19T05:06:29.864Z,18.10
2023-03-19T05:11:23.350Z,19.42
2023-03-19T05:16:29.319Z,18.85
2023-03-19T05:21:22.575Z,19.73
2023-03-19T05:26:19.627Z,18.92
2023-03-19T05:31:32.744Z,19.98
2023-03-19T05:36:26.419Z,21.33
2023-03-19T05:41:43.241Z,19.40
2023-03-19T05:46:38.828Z,19.15
2023-03-19T05:51:33.533Z,19.35
2023-03-19T05:56:30.410Z,17.58
2023-03-19T06:01:42.192Z,15.50
2023-03-19T06:06:35.668Z,16.40
2023-03-19T06:11:28.635Z,16.92
2023-03-19T06:16:44.307Z,17.98
2023-03-19T06:21:38.987Z,18.90
2023-03-19T06:26:32.910Z,18.33
2023-03-19T06:31:29.278Z,17.15
2023-03-19T06:36:27.021Z,17.17
2023-03-19T06:41:20.478Z,17.65
2023-03-19T06:46:14.618Z,18.13
2023-03-19T06:51:08.462Z,19.15
2023-03-19T06:56:03.119Z,18.73
2023-03-19T07:00:57.335Z,18.38
2023-03-19T07:05:51.978Z,18.08
2023-03-19T07:10:46.422Z,18.10
2023-03-19T07:15:39.381Z,16.33
2023-03-19T07:20:33.442Z,16.83
2023-03-19T07:25:26.986Z,16.00
2023-03-19T07:30:20.933Z,18.08
2023-03-19T07:35:14.792Z,17.70
2023-03-19T07:40:09.485Z,16.42
2023-03-19T07:45:04.353Z,16.83
2023-03-19T07:49:58.624Z,15.63
2023-03-19T07:54:52.468Z,14.40
2023-03-19T07:59:46.277Z,15.60
2023-03-19T08:04:40.280Z,14.65
2023-03-19T08:09:35.396Z,14.25
2023-03-19T08:14:29.214Z,14.70
2023-03-19T08:19:23.352Z,16.73
2023-03-19T08:24:16.330Z,16.90
2023-03-19T08:29:10.310Z,17.20
2023-03-19T08:34:05.186Z,16.88
2023-03-19T08:38:59.437Z,17.52
2023-03-19T08:43:53.492Z,16.77
2023-03-19T08:48:47.367Z,14.57
2023-03-19T08:53:40.919Z,14.00
2023-03-19T08:58:34.536Z,13.82
2023-03-19T09:03:28.117Z,13.95
2023-03-19T09:08:22.053Z,12.77
2023-03-19T09:13:16.709Z,14.52
2023-03-19T09:18:10.263Z,12.05
2023-03-19T09:23:07.228Z,14.25
2023-03-19T09:28:00.952Z,14.37
2023-03-19T09:32:55.065Z,13.68
2023-03-19T09:37:50.905Z,13.75
2023-03-19T09:43:17.464Z,12.02
2023-03-19T09:48:16.309Z,12.38
2023-03-19T09:53:18.740Z,11.73
2023-03-19T09:58:15.530Z,13.13
2023-03-19T10:03:56.350Z,13.80
2023-03-19T10:09:18.817Z,12.65
2023-03-19T10:14:26.161Z,14.32
2023-03-19T10:19:23.369Z,15.77
2023-03-19T10:24:28.106Z,14.87
2023-03-19T10:29:22.066Z,16.30
2023-03-19T10:34:40.592Z,15.02
2023-03-19T10:39:37.981Z,17.02
2023-03-19T10:44:32.327Z,16.30
2023-03-19T10:49:26.098Z,16.50
2023-03-19T10:54:25.462Z,17.38
2023-03-19T10:59:27.716Z,15.68
2023-03-19T11:04:24.075Z,16.90
2023-03-19T11:09:32.871Z,18.20
2023-03-19T11:14:49.172Z,17.73
2023-03-19T11:20:06.140Z,17.65
2023-03-19T11:25:02.715Z,18.83
2023-03-19T11:29:56.262Z,20.10
2023-03-19T11:35:13.860Z,18.13
2023-03-19T11:40:32.096Z,17.80
2023-03-19T11:45:48.481Z,20.65
2023-03-19T11:51:08.677Z,19.00
2023-03-19T11:56:04.401Z,18.95
2023-03-19T12:00:57.760Z,20.27
2023-03-19T12:06:37.416Z,20.00
2023-03-19T12:11:56.669Z,22.30
2023-03-19T12:17:04.329Z,27.45
2023-03-19T12:22:35.148Z,21.05
2023-03-19T12:27:38.362Z,19.52
2023-03-19T12:32:40.275Z,19.27
2023-03-19T12:37:43.527Z,20.08
2023-03-19T12:42:40.117Z,19.75
2023-03-19T12:47:37.626Z,19.70
2023-03-19T12:52:39.348Z,20.80
2023-03-19T12:57:39.509Z,22.45
2023-03-19T13:02:41.609Z,21.92
2023-03-19T13:07:45.675Z,22.38
2023-03-19T13:12:39.735Z,21.77
2023-03-19T13:18:09.576Z,23.25
2023-03-19T13:23:05.849Z,25.77
2023-03-19T13:27:58.240Z,23.52
2023-03-19T13:33:05.149Z,22.13
2023-03-19T13:38:21.899Z,18.83
2023-03-19T13:43:34.394Z,17.67
2023-03-19T13:48:27.030Z,17.15
2023-03-19T13:53:32.479Z,17.80
2023-03-19T13:58:55.830Z,14.57
2023-03-19T14:03:56.981Z,18.48
2023-03-19T14:08:51.904Z,17.50
2023-03-19T14:13:49.237Z,15.68
2023-03-19T14:18:43.535Z,15.02
2023-03-19T14:23:43.021Z,14.68
2023-03-19T14:28:46.214Z,15.05
2023-03-19T14:34:08.448Z,14.82
2023-03-19T14:39:05.762Z,14.10
2023-03-19T14:44:34.442Z,15.50
2023-03-19T14:49:28.481Z,15.15
2023-03-19T14:54:45.191Z,14.50
2023-03-19T14:59:39.852Z,12.68
2023-03-19T15:04:32.480Z,13.40
2023-03-19T15:09:31.897Z,12.35
2023-03-19T15:14:36.167Z,10.93
2023-03-19T15:19:31.027Z,11.23
2023-03-19T15:24:25.013Z,10.45
2023-03-19T15:29:19.099Z,11.32
2023-03-19T15:34:27.101Z,10.30
2023-03-19T15:39:21.341Z,7.85
2023-03-19T15:44:18.802Z,9.18
2023-03-19T15:49:17.270Z,9.85
2023-03-19T15:59:03.631Z,9.80
2023-03-19T16:04:30.412Z,9.38
2023-03-19T16:09:35.001Z,10.18
2023-03-19T16:14:32.773Z,9.85
2023-03-19T16:19:38.790Z,10.65
2023-03-19T16:24:36.610Z,13.73
2023-03-19T16:29:35.647Z,14.40
2023-03-19T16:35:06.192Z,14.13
2023-03-19T16:40:14.101Z,13.43
2023-03-19T16:45:27.914Z,13.82
2023-03-19T16:50:23.878Z,13.75
2023-03-19T16:55:25.020Z,12.25
2023-03-19T17:00:21.404Z,12.48
2023-03-19T17:05:15.339Z,13.05
2023-03-19T17:10:19.539Z,12.13
2023-03-19T17:15:37.885Z,11.20
2023-03-19T17:20:41.200Z,11.85
2023-03-19T17:25:34.842Z,13.48
2023-03-19T17:30:28.969Z,14.07
2023-03-19T17:35:22.997Z,14.82
2023-03-19T17:40:23.805Z,14.65
2023-03-19T17:45:18.275Z,16.77
2023-03-19T17:50:20.246Z,17.10
2023-03-19T17:55:22.013Z,16.58
2023-03-19T18:00:15.403Z,15.70
2023-03-19T18:05:16.550Z,16.15
2023-03-19T18:10:22.202Z,15.15
2023-03-19T18:15:16.235Z,16.20
2023-03-19T18:20:14.993Z,15.60
2023-03-19T18:25:38.793Z,15.45
2023-03-19T18:30:35.403Z,16.38
2023-03-19T18:35:34.019Z,22.08
2023-03-19T18:40:29.889Z,17.33
2023-03-19T18:45:23.461Z,22.33
2023-03-19T18:50:23.396Z,18.50
2023-03-19T18:55:16.917Z,16.40
2023-03-19T19:00:22.473Z,18.92
2023-03-19T19:05:23.814Z,22.95
2023-03-19T19:10:17.715Z,24.98
2023-03-19T19:15:25.867Z,25.27
2023-03-19T19:20:20.656Z,31.73
2023-03-19T19:25:20.156Z,23.98
2023-03-19T19:30:19.020Z,22.95
2023-03-19T19:35:16.976Z,28.38
2023-03-19T19:40:13.568Z,22.15
2023-03-19T19:45:10.181Z,21.85
2023-03-19T19:50:03.020Z,20.83
2023-03-19T19:54:56.212Z,21.05
2023-03-19T19:59:50.084Z,24.23
2023-03-19T20:04:44.390Z,23.30
2023-03-19T20:09:38.860Z,24.30
2023-03-19T20:14:32.378Z,24.15
2023-03-19T20:19:26.415Z,25.30
2023-03-19T20:24:19.493Z,25.23
2023-03-19T20:29:17.064Z,26.60
2023-03-19T20:34:32.468Z,26.73
2023-03-19T20:39:32.221Z,26.02
2023-03-19T20:44:26.621Z,27.02
2023-03-19T20:49:21.183Z,28.13
2023-03-19T20:54:15.586Z,26.65
2023-03-19T20:59:11.692Z,28.10
2023-03-19T21:04:06.248Z,27.92
2023-03-19T21:09:02.884Z,29.55
2023-03-19T21:13:56.907Z,27.77
2023-03-19T21:18:57.491Z,30.00
2023-03-19T21:23:55.558Z,34.42
2023-03-19T21:28:48.981Z,29.88
2023-03-19T21:33:44.166Z,31.88
2023-03-19T21:38:37.550Z,30.25
2023-03-19T21:43:54.360Z,29.75
2023-03-19T21:48:48.036Z,29.98
2023-03-19T21:53:42.985Z,33.13
2023-03-19T21:58:36.649Z,31.63
2023-03-19T22:03:30.317Z,27.45
2023-03-19T22:08:25.006Z,27.23
2023-03-19T22:13:23.009Z,28.98
2023-03-19T22:18:16.073Z,28.25
2023-03-19T22:23:10.204Z,28.70
2023-03-19T22:28:08.601Z,28.42
2023-03-19T22:33:02.057Z,28.00
2023-03-19T22:37:54.795Z,26.83
2023-03-19T22:42:49.065Z,27.88
2023-03-19T22:47:42.821Z,30.05
2023-03-19T22:52:37.030Z,30.30
2023-03-19T22:57:31.016Z,29.83
2023-03-19T23:02:23.722Z,29.20
2023-03-19T23:07:16.066Z,28.63
2023-03-19T23:12:12.702Z,28.85
2023-03-19T23:17:15.705Z,29.08
2023-03-19T23:22:14.214Z,31.45
2023-03-19T23:27:10.999Z,32.13
2023-03-19T23:32:05.125Z,33.03
2023-03-19T23:36:58.876Z,34.58
2023-03-19T23:41:53.907Z,35.38
2023-03-19T23:46:50.056Z,38.08
2023-03-19T23:51:44.390Z,41.08
2023-03-19T23:56:38.895Z,38.67
